Time;durP1;ratioP1;P1;durP2;ratioP2;P2;SDS_P1;SDS_P2;PMS_P1;PMS_P2;Temp;Humidity;BMP_temperature;BMP_pressure;BME280_temperature;BME280_humidity;BME280_pressure;Samples;Min_cycle;Max_cycle;Signal;HPM_P1;HPM_P2
2022/01/14 00:02:12;;;;;;;6.53;3.05;;;;;;;-0.85;74.18;97351.06;5008141;28;20084;-79
2022/01/14 00:04:39;;;;;;;6.93;3.42;;;;;;;-0.82;74.17;97341.69;4993154;28;20136;-79
2022/01/14 00:07:06;;;;;;;7.35;2.83;;;;;;;-0.79;74.44;97336.56;4979903;28;20107;-79
2022/01/14 00:09:33;;;;;;;6.85;3.35;;;;;;;-0.76;74.09;97330.59;5008282;28;20048;-80
2022/01/14 00:12:00;;;;;;;5.93;3.30;;;;;;;-0.93;74.13;97298.31;4966719;28;21524;-79
2022/01/14 00:17:15;;;;;;;5.55;3.10;;;;;;;-0.74;75.03;97305.91;5008127;28;20084;-79
2022/01/14 00:19:42;;;;;;;6.25;2.70;;;;;;;-0.68;74.94;97305.88;4997788;28;20058;-80
2022/01/14 00:22:13;;;;;;;6.47;2.90;;;;;;;-0.64;75.49;97293.94;4988263;28;20045;-79
2022/01/14 00:33:16;;;;;;;6.32;2.35;;;;;;;-0.57;75.21;97241.13;5007748;28;20048;-79
2022/01/14 00:35:41;;;;;;;5.85;2.50;;;;;;;-0.42;75.45;97261.50;5009230;28;20341;-80
2022/01/14 00:38:07;;;;;;;6.75;2.40;;;;;;;-0.40;75.60;97247.00;5009713;28;20049;-80
2022/01/14 00:40:33;;;;;;;4.82;2.22;;;;;;;-0.32;75.27;97249.50;5009898;28;20060;-80
2022/01/14 00:42:59;;;;;;;5.00;2.42;;;;;;;-0.29;76.23;97259.72;5008811;28;20064;-80
2022/01/14 00:45:26;;;;;;;3.85;2.13;;;;;;;-0.25;76.10;97255.44;4990377;28;20048;-79
2022/01/14 00:47:51;;;;;;;4.25;2.38;;;;;;;-0.28;75.68;97240.09;4990884;28;20037;-80
2022/01/14 00:50:18;;;;;;;4.60;2.20;;;;;;;-0.36;75.88;97227.38;5008675;28;20828;-79
2022/01/14 00:52:46;;;;;;;4.53;2.28;;;;;;;-0.57;76.56;97172.16;5010689;28;20685;-80
2022/01/14 00:55:15;;;;;;;5.00;2.28;;;;;;;-0.08;76.05;97245.94;5023736;28;20045;-80
2022/01/14 01:00:34;;;;;;;3.63;2.33;;;;;;;-0.11;76.79;97196.53;5009165;28;20033;-80
2022/01/14 01:03:02;;;;;;;3.90;2.30;;;;;;;0.03;76.23;97209.22;4991812;28;20452;-79
2022/01/14 01:05:28;;;;;;;7.18;2.75;;;;;;;-0.08;76.68;97176.91;4989988;28;20053;-80
2022/01/14 01:08:09;;;;;;;3.83;2.08;;;;;;;0.11;75.91;97199.78;4997913;28;20145;-80
2022/01/14 01:10:35;;;;;;;4.70;2.10;;;;;;;0.03;76.67;97175.97;5012455;28;20793;-79
2022/01/14 01:13:15;;;;;;;6.22;2.40;;;;;;;-0.12;76.15;97136.91;5009795;28;20168;-79
2022/01/14 01:15:41;;;;;;;6.93;3.20;;;;;;;0.13;76.92;97159.66;5013088;28;20103;-79
2022/01/14 01:18:07;;;;;;;6.57;2.70;;;;;;;0.35;76.92;97187.59;5015303;28;20545;-79
2022/01/14 01:20:33;;;;;;;6.43;2.65;;;;;;;0.13;76.92;97123.84;5017510;28;20085;-78
2022/01/14 01:22:58;;;;;;;12.82;5.00;;;;;;;0.36;76.56;97149.22;4998889;28;20080;-79
2022/01/14 01:25:40;;;;;;;4.03;2.08;;;;;;;0.46;76.95;97134.63;5003828;28;20065;-78
2022/01/14 01:28:06;;;;;;;5.25;2.45;;;;;;;0.49;77.41;97118.38;5019985;28;20045;-79
2022/01/14 01:32:59;;;;;;;6.47;1.90;;;;;;;0.64;77.02;97125.03;5015317;28;20101;-80
2022/01/14 01:35:25;;;;;;;2.90;1.88;;;;;;;0.47;77.25;97091.94;5011994;28;20042;-80
2022/01/14 01:37:51;;;;;;;6.97;1.85;;;;;;;0.66;77.05;97119.03;5023083;28;20073;-79
2022/01/14 01:40:19;;;;;;;5.88;1.90;;;;;;;0.68;77.33;97129.25;5006440;28;20103;-81
2022/01/14 01:42:45;;;;;;;5.72;2.05;;;;;;;0.77;77.71;97130.84;5020185;28;20064;-81
2022/01/14 01:45:21;;;;;;;7.47;1.83;;;;;;;0.61;77.21;97090.09;5015104;28;20338;-80
2022/01/14 01:47:50;;;;;;;4.95;1.90;;;;;;;0.65;76.82;97083.22;5030373;28;20120;-79
2022/01/14 01:50:21;;;;;;;6.85;1.92;;;;;;;0.87;76.82;97102.56;5018468;28;20049;-80
2022/01/14 01:52:49;;;;;;;5.15;1.92;;;;;;;0.83;77.48;97084.69;5010935;28;20042;-80
2022/01/14 01:55:16;;;;;;;3.55;1.85;;;;;;;1.03;77.31;97113.44;5006509;28;20046;-80
2022/01/14 01:57:43;;;;;;;13.57;2.08;;;;;;;1.05;76.94;97106.59;5011323;28;20037;-77
2022/01/14 02:00:11;;;;;;;6.00;2.45;;;;;;;0.92;77.11;97060.69;5022264;28;20069;-78
2022/01/14 02:02:45;;;;;;;6.00;2.03;;;;;;;1.10;76.82;97059.59;5003385;28;20029;-76
2022/01/14 02:05:10;;;;;;;7.63;2.38;;;;;;;1.00;77.29;97031.53;5020185;28;20054;-78
2022/01/14 02:07:38;;;;;;;7.20;2.78;;;;;;;1.16;77.14;97051.78;5031497;28;20041;-78
2022/01/14 02:10:05;;;;;;;8.02;1.95;;;;;;;0.95;76.87;97037.59;5038422;28;20044;-77
2022/01/14 02:12:37;;;;;;;7.93;2.30;;;;;;;1.25;77.11;97096.91;5022251;28;20042;-76
2022/01/14 02:23:04;;;;;;;23.77;9.63;;;;;;;1.35;77.40;97048.06;5019094;28;20045;-77
2022/01/14 02:25:30;;;;;;;27.67;11.00;;;;;;;1.40;77.17;97022.38;5018357;28;20040;-76
2022/01/14 02:28:10;;;;;;;23.13;9.77;;;;;;;1.50;77.23;97012.81;5017737;28;20045;-78
2022/01/14 02:30:39;;;;;;;16.88;7.63;;;;;;;1.53;77.63;96997.38;5006683;28;20049;-78
2022/01/14 02:33:06;;;;;;;14.50;6.15;;;;;;;1.34;77.30;96959.25;4993015;28;20112;-78
2022/01/14 02:35:32;;;;;;;14.82;6.93;;;;;;;1.57;77.12;96990.47;5018027;28;20118;-77
2022/01/14 02:37:58;;;;;;;13.13;6.22;;;;;;;1.54;77.20;96987.97;5032759;28;20100;-78
2022/01/14 02:40:25;;;;;;;16.10;6.10;;;;;;;1.60;77.41;96980.19;5016419;28;20096;-78
2022/01/14 02:42:51;;;;;;;11.90;5.00;;;;;;;1.41;77.61;96942.06;5016322;28;20076;-78
2022/01/14 02:45:18;;;;;;;11.27;5.13;;;;;;;1.58;77.50;96969.94;5000589;28;20072;-76
2022/01/14 02:47:44;;;;;;;13.63;5.95;;;;;;;1.43;77.56;96949.72;5018084;28;20037;-77
2022/01/14 02:50:19;;;;;;;15.52;6.30;;;;;;;1.64;77.08;96976.69;5018141;28;20069;-78
2022/01/14 02:55:19;;;;;;;17.92;7.57;;;;;;;1.63;77.19;96957.88;5017454;28;20044;-78
2022/01/14 02:57:47;;;;;;;18.23;8.73;;;;;;;1.58;77.66;96935.78;5006649;28;20116;-77
2022/01/14 03:00:15;;;;;;;13.43;5.78;;;;;;;1.62;77.13;96957.94;5016204;28;20045;-77
2022/01/14 03:02:47;;;;;;;16.13;6.70;;;;;;;1.50;77.05;96928.25;5016242;28;20053;-77
2022/01/14 03:05:13;;;;;;;;;;;;;;;1.34;77.31;96905.44;5004963;28;20049;-77
2022/01/14 03:07:40;;;;;;;17.48;7.05;;;;;;;1.21;77.42;96873.22;5016945;28;19921;-77
2022/01/14 03:10:08;;;;;;;15.20;6.47;;;;;;;1.60;77.47;96918.66;5014396;28;20041;-78
2022/01/14 03:12:35;;;;;;;17.65;6.60;;;;;;;1.47;77.58;96905.22;5016471;28;20037;-76
2022/01/14 03:15:01;;;;;;;18.95;7.07;;;;;;;1.61;77.62;96922.91;5017763;28;20045;-79
2022/01/14 03:17:29;;;;;;;17.30;6.43;;;;;;;1.33;77.31;96883.25;5033352;28;20041;-76
2022/01/14 03:19:57;;;;;;;20.83;7.40;;;;;;;1.57;77.55;96911.84;4999032;28;20585;-77
2022/01/14 03:22:29;;;;;;;19.45;6.35;;;;;;;1.41;77.77;96879.69;4991416;28;20054;-78
2022/01/14 03:27:21;;;;;;;5.60;2.70;;;;;;;1.39;77.87;96841.31;5002152;28;20377;-75
2022/01/14 03:29:47;;;;;;;6.18;2.47;;;;;;;1.50;77.56;96852.19;5016694;28;20041;-78
2022/01/14 03:32:14;;;;;;;4.72;2.90;;;;;;;1.72;77.95;96882.50;4999432;28;20044;-77
2022/01/14 03:34:39;;;;;;;6.45;2.60;;;;;;;1.69;77.75;96858.66;5017684;28;20050;-78
2022/01/14 03:37:06;;;;;;;5.30;2.47;;;;;;;1.80;77.46;96849.03;5020982;28;20135;-79
2022/01/14 03:39:32;;;;;;;4.15;2.10;;;;;;;1.70;77.64;96843.25;5015835;28;20068;-77
2022/01/14 03:41:58;;;;;;;4.10;2.40;;;;;;;1.44;77.34;96806.16;5017804;28;20041;-82
2022/01/14 03:44:24;;;;;;;7.80;3.47;;;;;;;1.59;77.58;96842.63;4995569;28;20037;-81
2022/01/14 03:46:50;;;;;;;9.07;3.63;;;;;;;0.79;77.94;96691.34;4994767;28;20045;-83
2022/01/14 03:49:16;;;;;;;9.35;4.00;;;;;;;1.70;77.71;96822.72;5020243;28;20048;-80
2022/01/14 03:51:42;;;;;;;12.57;5.15;;;;;;;1.77;77.61;96832.00;5019567;28;20099;-79
2022/01/14 03:54:09;;;;;;;13.05;5.40;;;;;;;1.76;77.44;96834.59;5017036;28;20124;-78
2022/01/14 03:56:35;;;;;;;13.02;4.45;;;;;;;1.73;77.72;96826.97;5016131;28;20076;-79
2022/01/14 03:59:04;;;;;;;12.45;4.40;;;;;;;1.59;77.58;96805.00;4999030;28;20122;-79
2022/01/14 04:01:33;;;;;;;7.70;3.78;;;;;;;1.64;78.02;96802.38;5018349;28;20096;-78
2022/01/14 04:03:59;;;;;;;7.90;3.72;;;;;;;1.80;78.02;96831.94;5016278;28;20559;-79
2022/01/14 04:06:24;;;;;;;7.18;3.65;;;;;;;1.80;77.93;96821.69;5019162;28;20050;-80
2022/01/14 04:08:50;;;;;;;6.32;3.05;;;;;;;1.68;78.10;96790.31;5000968;28;20045;-80
2022/01/14 04:11:16;;;;;;;8.18;3.15;;;;;;;1.55;77.87;96756.41;5021879;28;20041;-80
2022/01/14 04:16:08;;;;;;;7.35;3.28;;;;;;;1.85;77.60;96782.28;5015336;28;20053;-80
2022/01/14 04:18:34;;;;;;;13.70;5.55;;;;;;;1.65;78.10;96745.09;5018627;28;20037;-79
2022/01/14 04:21:01;;;;;;;7.82;4.32;;;;;;;1.53;77.96;96715.44;5016431;28;20054;-80
2022/01/14 04:23:28;;;;;;;8.13;3.00;;;;;;;1.31;78.04;96671.50;5000765;28;20044;-84
2022/01/14 04:25:55;;;;;;;6.95;3.42;;;;;;;1.57;77.81;96723.91;5006087;28;20056;-81
2022/01/14 04:28:26;;;;;;;10.13;4.75;;;;;;;1.04;78.44;96643.03;5019808;28;20045;-83
2022/01/14 04:30:54;;;;;;;9.30;3.90;;;;;;;1.09;78.35;96627.59;5017127;28;20046;-83
2022/01/14 04:33:25;;;;;;;6.38;3.22;;;;;;;1.81;77.80;96730.19;4999787;28;20026;-80
2022/01/14 04:35:52;;;;;;;6.07;2.80;;;;;;;1.61;78.05;96708.41;5014833;28;20045;-83
2022/01/14 04:38:18;;;;;;;10.55;5.32;;;;;;;1.60;78.48;96698.22;5017709;28;20489;-80
2022/01/14 04:40:44;;;;;;;11.65;4.50;;;;;;;1.54;77.69;96680.41;4999487;28;20056;-80
2022/01/14 04:43:10;;;;;;;9.18;3.83;;;;;;;1.79;78.11;96707.16;5016586;28;20061;-79
2022/01/14 04:48:05;;;;;;;6.15;3.17;;;;;;;1.83;78.08;96709.66;5019678;28;20220;-79
2022/01/14 04:50:31;;;;;;;5.82;3.47;;;;;;;1.85;78.10;96713.88;5016533;28;20115;-82
2022/01/14 04:52:57;;;;;;;10.07;4.03;;;;;;;1.85;78.21;96700.22;5020559;28;20048;-81
2022/01/14 04:55:25;;;;;;;7.80;2.92;;;;;;;1.73;78.50;96670.56;5003589;28;20038;-79
2022/01/14 04:57:52;;;;;;;6.22;2.85;;;;;;;1.77;78.57;96675.59;4997737;28;20038;-78
2022/01/14 05:00:21;;;;;;;8.82;3.53;;;;;;;1.82;78.46;96679.78;5029100;28;20081;-78
2022/01/14 05:02:48;;;;;;;7.45;2.83;;;;;;;1.76;78.61;96667.94;4998133;28;20212;-79
2022/01/14 05:05:17;;;;;;;6.88;3.13;;;;;;;1.86;78.45;96686.50;5026150;28;20044;-79
2022/01/14 05:07:47;;;;;;;5.03;2.47;;;;;;;1.78;78.24;96663.59;5015172;28;20037;-79
2022/01/14 05:12:52;;;;;;;5.22;2.70;;;;;;;1.92;78.67;96666.69;5020983;28;20045;-80
2022/01/14 05:15:19;;;;;;;10.30;4.40;;;;;;;1.93;78.60;96659.81;5017721;28;20485;-78
2022/01/14 05:17:45;;;;;;;6.88;3.00;;;;;;;1.91;78.32;96661.56;5015583;28;20055;-77
2022/01/14 05:20:13;;;;;;;7.03;3.50;;;;;;;1.88;78.71;96659.94;5015665;28;20473;-78
2022/01/14 05:22:39;;;;;;;5.28;2.95;;;;;;;1.86;78.88;96653.19;5011774;28;20034;-77
2022/01/14 05:25:07;;;;;;;8.23;3.50;;;;;;;1.85;78.38;96642.06;5013923;28;20048;-80
2022/01/14 05:27:34;;;;;;;7.97;3.65;;;;;;;1.95;78.91;96647.81;4994488;28;20076;-80
2022/01/14 05:30:00;;;;;;;10.73;3.10;;;;;;;1.98;78.41;96634.91;5012289;28;20046;-80
2022/01/14 05:32:27;;;;;;;6.68;2.95;;;;;;;1.87;78.81;96611.28;4979002;28;20049;-77
2022/01/14 05:34:53;;;;;;;10.07;3.20;;;;;;;1.90;78.50;96619.72;4983492;28;20038;-77
2022/01/14 05:37:18;;;;;;;8.57;4.15;;;;;;;1.92;78.96;96612.84;5026365;28;20045;-77
2022/01/14 05:39:44;;;;;;;9.88;5.32;;;;;;;2.01;78.72;96613.47;5027319;28;20057;-78
2022/01/14 05:42:10;;;;;;;8.90;3.72;;;;;;;1.95;78.57;96609.34;5014879;28;20076;-78
2022/01/14 05:44:37;;;;;;;6.13;2.92;;;;;;;1.96;78.49;96598.19;4998365;28;20037;-76
2022/01/14 05:47:03;;;;;;;8.15;3.45;;;;;;;2.02;78.56;96598.06;5013814;28;20061;-78
2022/01/14 05:49:29;;;;;;;6.10;2.83;;;;;;;2.03;78.63;96589.47;5015241;28;20390;-77
2022/01/14 05:51:55;;;;;;;8.63;3.50;;;;;;;2.01;78.65;96572.41;5020252;28;20488;-78
2022/01/14 05:54:21;;;;;;;10.35;3.97;;;;;;;1.89;78.28;96568.44;5016697;28;20045;-78
2022/01/14 05:56:48;;;;;;;7.97;3.72;;;;;;;1.99;78.45;96584.47;4990795;28;20792;-79
2022/01/14 05:59:15;;;;;;;5.32;2.38;;;;;;;2.01;78.72;96585.25;5016847;28;20535;-79
2022/01/14 06:01:41;;;;;;;6.63;2.97;;;;;;;2.05;78.85;96580.03;4996369;28;20049;-77
2022/01/14 06:04:07;;;;;;;10.05;3.92;;;;;;;2.04;78.41;96570.63;4999908;28;20153;-78
2022/01/14 06:06:34;;;;;;;10.10;4.32;;;;;;;2.04;78.35;96565.50;4999048;28;20774;-77
2022/01/14 06:09:00;;;;;;;8.70;3.42;;;;;;;2.06;78.28;96555.19;5015319;28;20034;-78
2022/01/14 06:11:27;;;;;;;9.18;3.45;;;;;;;2.03;78.42;96533.03;5013997;28;20046;-74
2022/01/14 06:13:54;;;;;;;5.68;2.90;;;;;;;1.92;78.12;96514.53;5017913;28;20045;-79
2022/01/14 06:16:20;;;;;;;8.48;3.05;;;;;;;2.06;78.72;96525.28;5015214;28;20049;-77
2022/01/14 06:18:46;;;;;;;8.15;2.72;;;;;;;1.95;78.38;96507.59;5013520;28;20076;-80
2022/01/14 06:21:13;;;;;;;8.23;2.80;;;;;;;2.06;78.67;96521.84;5014897;28;20156;-78
2022/01/14 06:23:38;;;;;;;6.53;2.85;;;;;;;1.96;78.84;96505.88;5014330;28;20046;-78
2022/01/14 06:26:05;;;;;;;4.85;2.60;;;;;;;2.02;78.33;96499.72;5017696;28;20041;-77
2022/01/14 06:28:34;;;;;;;4.00;1.98;;;;;;;2.14;78.92;96503.69;5012138;28;20069;-78
2022/01/14 06:31:01;;;;;;;4.03;2.22;;;;;;;2.11;78.39;96490.06;5014302;28;20486;-80
2022/01/14 06:33:26;;;;;;;3.75;1.60;;;;;;;1.88;78.57;96441.13;4998834;28;20466;-76
2022/01/14 06:35:52;;;;;;;4.93;1.95;;;;;;;2.06;78.50;96460.28;5016134;28;20078;-77
2022/01/14 06:38:32;;;;;;;4.57;1.50;;;;;;;2.15;78.61;96469.44;5015899;28;20077;-76
2022/01/14 06:41:02;;;;;;;2.22;1.10;;;;;;;1.49;78.24;96378.94;4988182;28;20087;-76
2022/01/14 06:43:27;;;;;;;6.82;1.67;;;;;;;2.03;78.74;96460.38;5016356;28;20042;-79
2022/01/14 06:45:53;;;;;;;3.72;1.95;;;;;;;1.73;78.40;96412.47;5024460;28;20039;-76
2022/01/14 06:48:19;;;;;;;1.83;1.30;;;;;;;1.97;78.86;96438.31;4998436;28;20140;-79
2022/01/14 06:50:48;;;;;;;3.90;1.63;;;;;;;2.06;78.79;96434.63;5008881;28;20881;-77
2022/01/14 06:53:14;;;;;;;4.00;1.90;;;;;;;2.10;78.71;96457.59;5018018;28;20044;-77
2022/01/14 06:55:42;;;;;;;5.40;2.63;;;;;;;2.03;78.48;96430.44;4984963;28;20153;-79
2022/01/14 06:58:09;;;;;;;4.78;2.38;;;;;;;1.98;78.61;96413.53;5019618;28;20041;-80
2022/01/14 07:00:36;;;;;;;9.02;3.28;;;;;;;1.99;78.42;96413.47;5021039;28;20045;-78
2022/01/14 07:03:04;;;;;;;3.78;2.00;;;;;;;2.01;78.52;96396.31;5000547;28;20045;-80
2022/01/14 07:05:31;;;;;;;7.68;3.58;;;;;;;2.01;78.77;96405.72;5002068;28;20579;-78
2022/01/14 07:07:56;;;;;;;14.98;6.40;;;;;;;1.94;78.34;96390.53;4997567;28;20041;-78
2022/01/14 07:10:22;;;;;;;12.32;4.55;;;;;;;2.07;78.68;96408.97;4984641;28;20045;-78
2022/01/14 07:12:48;;;;;;;8.65;3.88;;;;;;;2.05;78.98;96403.03;5000543;28;20042;-77
2022/01/14 07:15:16;;;;;;;11.18;4.85;;;;;;;2.13;78.75;96417.34;5018222;28;20041;-80
2022/01/14 07:17:44;;;;;;;10.82;4.07;;;;;;;2.19;78.47;96409.47;5020415;28;20132;-79
2022/01/14 07:20:13;;;;;;;7.07;3.15;;;;;;;2.10;78.82;96396.03;5001630;28;20478;-79
2022/01/14 07:22:41;;;;;;;9.65;3.38;;;;;;;2.16;78.77;96384.75;5016745;28;20045;-77
2022/01/14 07:25:07;;;;;;;4.68;2.45;;;;;;;2.27;78.58;96397.28;5017471;28;20038;-80
2022/01/14 07:27:33;;;;;;;6.30;2.33;;;;;;;2.29;78.36;96392.94;5020515;28;20038;-75
2022/01/14 07:29:59;;;;;;;8.13;2.50;;;;;;;2.26;78.74;96373.31;5019086;28;20046;-77
2022/01/14 07:32:25;;;;;;;6.72;2.65;;;;;;;2.33;78.47;96373.97;5019565;28;20049;-79
2022/01/14 07:34:51;;;;;;;6.65;3.25;;;;;;;2.23;78.68;96350.31;4991272;28;20138;-78
2022/01/14 07:37:18;;;;;;;3.80;2.00;;;;;;;2.26;78.42;96354.53;5016280;28;20467;-80
2022/01/14 07:39:44;;;;;;;3.22;1.65;;;;;;;2.31;78.49;96341.56;5017351;28;20557;-79
2022/01/14 07:42:09;;;;;;;5.10;2.00;;;;;;;2.40;78.43;96347.25;5019297;28;20104;-78
2022/01/14 07:44:35;;;;;;;7.47;2.60;;;;;;;2.38;78.59;96327.66;5017235;28;20480;-80
2022/01/14 07:47:02;;;;;;;9.18;3.20;;;;;;;2.49;78.33;96335.84;4981631;28;20113;-78
2022/01/14 07:49:27;;;;;;;6.57;2.15;;;;;;;2.50;78.63;96323.88;5002455;28;20051;-77
2022/01/14 07:51:53;;;;;;;2.80;1.20;;;;;;;2.43;78.08;96309.53;5018918;28;20556;-79
2022/01/14 07:54:19;;;;;;;2.92;1.60;;;;;;;2.62;78.37;96333.72;5018315;28;20099;-76
2022/01/14 07:56:50;;;;;;;4.75;1.60;;;;;;;2.68;78.22;96315.56;5007404;28;21259;-77
2022/01/14 07:59:19;;;;;;;4.15;1.60;;;;;;;2.75;78.22;96323.06;5017021;28;20068;-81
2022/01/14 08:01:46;;;;;;;5.68;2.03;;;;;;;2.66;78.15;96291.66;5015626;28;20545;-83
2022/01/14 08:04:16;;;;;;;3.78;1.60;;;;;;;2.72;77.90;96290.59;4991158;28;20041;-80
2022/01/14 08:06:49;;;;;;;4.40;1.63;;;;;;;2.73;77.80;96294.03;4986018;28;20036;-80
2022/01/14 08:09:16;;;;;;;4.28;1.70;;;;;;;2.83;77.88;96308.22;4986161;28;20136;-78
2022/01/14 08:11:43;;;;;;;2.70;1.50;;;;;;;2.84;77.71;96299.63;5005373;28;20033;-76
2022/01/14 08:14:11;;;;;;;3.35;1.23;;;;;;;2.73;77.31;96276.88;5039742;28;20065;-78
2022/01/14 08:16:37;;;;;;;2.33;1.40;;;;;;;2.87;77.40;96296.97;5036142;28;20048;-78
2022/01/14 08:19:07;;;;;;;1.85;1.10;;;;;;;2.94;77.45;96292.44;5004489;28;20114;-78
2022/01/14 08:21:32;;;;;;;2.53;1.15;;;;;;;3.04;77.64;96287.84;4999148;28;20057;-80
2022/01/14 08:24:01;;;;;;;2.92;1.30;;;;;;;2.99;77.64;96259.75;5018051;28;20049;-81
2022/01/14 08:26:26;;;;;;;3.58;1.60;;;;;;;3.11;77.36;96266.19;5023218;28;20038;-77
2022/01/14 08:32:16;;;;;;;1.90;1.08;;;;;;;2.71;76.81;96188.78;5016925;28;20493;-78
2022/01/14 08:34:43;;;;;;;4.28;1.60;;;;;;;2.89;77.18;96223.28;5016056;28;20045;-79
2022/01/14 08:37:09;;;;;;;2.05;1.20;;;;;;;2.79;76.77;96207.34;5017628;28;20042;-78
2022/01/14 08:39:35;;;;;;;1.80;0.88;;;;;;;2.76;76.73;96204.88;5003590;28;20048;-78
2022/01/14 08:42:02;;;;;;;1.63;1.10;;;;;;;2.75;76.55;96182.66;5029680;28;20038;-77
2022/01/14 08:44:28;;;;;;;2.90;1.13;;;;;;;2.76;76.81;96181.78;5027641;28;20038;-79
2022/01/14 08:46:55;;;;;;;1.98;0.98;;;;;;;2.82;76.88;96168.72;5018725;28;20048;-79
2022/01/14 08:49:27;;;;;;;2.60;1.38;;;;;;;2.79;76.26;96167.97;5018238;28;20049;-79
2022/01/14 08:52:01;;;;;;;2.38;1.30;;;;;;;2.77;76.97;96154.34;5003301;28;20108;-77
2022/01/14 08:54:29;;;;;;;2.20;1.40;;;;;;;2.96;76.66;96177.66;5016324;28;20275;-77
2022/01/14 08:56:58;;;;;;;2.28;0.93;;;;;;;2.79;77.01;96152.56;5019954;28;20489;-77
2022/01/14 08:59:30;;;;;;;2.60;1.02;;;;;;;2.94;76.85;96166.59;5035625;28;20064;-79
2022/01/14 09:01:57;;;;;;;2.88;1.02;;;;;;;2.93;76.86;96137.53;5032892;28;20045;-77
2022/01/14 09:04:23;;;;;;;1.20;0.98;;;;;;;3.10;76.76;96154.84;5019966;28;20025;-79
2022/01/14 09:06:49;;;;;;;4.18;1.48;;;;;;;3.15;76.11;96152.97;5005153;28;20160;-76
2022/01/14 09:09:18;;;;;;;2.13;1.02;;;;;;;3.11;76.53;96138.56;5032704;28;20064;-77
2022/01/14 09:11:44;;;;;;;1.80;1.00;;;;;;;3.23;76.12;96152.66;4989594;28;20045;-77
2022/01/14 09:14:10;;;;;;;0.70;0.63;;;;;;;3.15;75.97;96136.72;5021869;28;20116;-76
2022/01/14 09:16:36;;;;;;;2.45;1.00;;;;;;;3.20;76.20;96129.66;5003451;28;20052;-77
2022/01/14 09:19:02;;;;;;;2.05;1.02;;;;;;;3.28;75.86;96119.09;5017309;28;20041;-76
2022/01/14 09:21:28;;;;;;;1.45;0.80;;;;;;;3.29;76.08;96101.03;5017514;28;20053;-78
2022/01/14 09:24:03;;;;;;;1.70;1.00;;;;;;;2.86;75.36;96023.91;5018946;28;20581;-79
2022/01/14 09:26:34;;;;;;;1.35;0.93;;;;;;;3.20;75.82;96078.25;5018197;28;20096;-79
2022/01/14 09:29:07;;;;;;;3.97;1.25;;;;;;;3.28;75.53;96085.69;5002895;28;20109;-77
2022/01/14 09:31:39;;;;;;;1.60;1.13;;;;;;;3.25;75.38;96062.69;5016467;28;20042;-76
2022/01/14 09:34:05;;;;;;;1.23;1.10;;;;;;;3.43;75.33;96086.81;5017017;28;20103;-79
2022/01/14 09:36:31;;;;;;;1.50;1.05;;;;;;;3.21;75.98;96031.13;5021544;28;20540;-80
2022/01/14 09:38:59;;;;;;;2.03;0.90;;;;;;;2.90;75.07;95964.72;5020815;28;20060;-76
2022/01/14 09:41:25;;;;;;;1.77;1.00;;;;;;;3.47;75.32;96036.97;5016739;28;20070;-80
2022/01/14 09:43:52;;;;;;;3.45;1.00;;;;;;;3.64;75.36;96053.44;5015386;28;20038;-79
2022/01/14 09:46:22;;;;;;;2.38;1.17;;;;;;;3.56;75.03;96028.88;5001986;28;20401;-76
2022/01/14 09:48:52;;;;;;;1.10;0.80;;;;;;;3.66;74.77;96016.47;5017156;28;20077;-77
2022/01/14 09:51:22;;;;;;;2.63;1.00;;;;;;;3.73;74.18;96030.75;4992478;28;20052;-81
2022/01/14 09:53:49;;;;;;;2.20;1.00;;;;;;;3.66;74.52;96031.91;5007791;28;20592;-79
2022/01/14 09:56:21;;;;;;;3.30;1.52;;;;;;;3.75;74.38;96022.97;5018909;28;20041;-80
2022/01/14 09:58:49;;;;;;;2.38;1.30;;;;;;;3.86;74.88;96012.22;5025169;28;20096;-79
2022/01/14 10:01:20;;;;;;;2.08;1.10;;;;;;;3.50;74.22;95949.44;5023014;28;20041;-81
2022/01/14 10:03:51;;;;;;;1.13;0.80;;;;;;;3.85;74.44;96003.69;5008280;28;20099;-78
2022/01/14 10:06:51;;;;;;;2.88;1.17;;;;;;;3.70;73.53;95955.47;5015235;28;20139;-81
2022/01/14 10:09:21;;;;;;;1.92;1.02;;;;;;;3.98;73.84;96003.16;5019523;28;20065;-80
2022/01/14 10:12:05;;;;;;;1.33;1.00;;;;;;;3.98;74.01;95992.88;4993619;28;20067;-80
2022/01/14 10:14:33;;;;;;;3.25;1.25;;;;;;;4.06;73.60;95989.06;5015665;28;20041;-80
2022/01/14 10:17:05;;;;;;;1.25;1.10;;;;;;;3.75;73.14;95917.53;5025148;28;20034;-80
2022/01/14 10:19:39;;;;;;;2.40;1.30;;;;;;;4.09;73.27;95964.91;5001965;28;20042;-81
2022/01/14 10:22:29;;;;;;;2.67;1.20;;;;;;;4.01;73.08;95939.53;5020566;28;20083;-81
2022/01/14 10:25:17;;;;;;;2.25;0.95;;;;;;;4.15;73.08;95961.25;5008650;28;20033;-80
2022/01/14 10:27:46;;;;;;;4.32;1.23;;;;;;;4.16;72.80;95958.59;5009725;28;20080;-80
2022/01/14 10:30:17;;;;;;;1.42;0.88;;;;;;;4.09;72.55;95962.34;5022958;28;20041;-81
2022/01/14 10:32:51;;;;;;;1.58;1.20;;;;;;;4.05;72.53;95958.25;5022846;28;20038;-81
2022/01/14 10:35:29;;;;;;;2.30;0.90;;;;;;;4.07;73.12;95943.59;5020937;28;20041;-81
2022/01/14 10:38:01;;;;;;;2.03;1.30;;;;;;;3.70;72.41;95899.75;4984187;28;20136;-82
2022/01/14 10:40:34;;;;;;;5.72;1.88;;;;;;;3.21;72.32;95830.72;5003224;28;20080;-83
2022/01/14 10:43:09;;;;;;;2.45;1.40;;;;;;;3.80;71.95;95930.19;5024861;28;20045;-82
2022/01/14 10:45:36;;;;;;;1.80;1.20;;;;;;;3.56;71.84;95900.34;5022914;28;20033;-79
2022/01/14 10:48:08;;;;;;;1.55;1.17;;;;;;;3.50;72.30;95920.34;5023584;28;20158;-80
2022/01/14 10:50:43;;;;;;;1.08;0.70;;;;;;;3.25;72.41;95893.91;5023236;28;20052;-80
2022/01/14 10:53:23;;;;;;;1.77;0.68;;;;;;;3.50;72.34;95933.19;5021425;28;20053;-81
2022/01/14 10:55:58;;;;;;;2.88;0.82;;;;;;;3.42;71.97;95918.09;5021455;28;20069;-81
2022/01/14 10:58:26;;;;;;;0.93;0.73;;;;;;;2.50;72.11;95801.09;5022804;28;20041;-79
2022/01/14 11:01:02;;;;;;;1.02;0.70;;;;;;;3.32;72.15;95917.63;4995266;28;20037;-79
2022/01/14 11:03:37;;;;;;;0.45;0.45;;;;;;;3.43;72.57;95906.88;5022953;28;20440;-79
2022/01/14 11:06:25;;;;;;;0.80;0.60;;;;;;;3.39;72.26;95906.19;5021724;28;20049;-81
2022/01/14 11:08:56;;;;;;;0.85;0.60;;;;;;;3.38;72.15;95886.53;4987254;28;20037;-80
2022/01/14 11:11:25;;;;;;;1.67;0.70;;;;;;;3.25;72.06;95873.38;4989822;28;20072;-79
2022/01/14 11:13:51;;;;;;;1.52;0.60;;;;;;;3.36;71.79;95893.47;5005517;28;20042;-80
2022/01/14 11:16:17;;;;;;;1.33;0.60;;;;;;;3.19;71.94;95881.34;5019221;28;20075;-79
2022/01/14 11:19:07;;;;;;;0.30;0.30;;;;;;;3.10;71.95;95879.97;5019725;28;20538;-79
2022/01/14 11:24:32;;;;;;;1.10;0.50;;;;;;;3.14;71.75;95886.66;5024889;28;20038;-81
2022/01/14 11:27:09;;;;;;;1.25;0.57;;;;;;;3.09;71.61;95869.78;5037209;28;20060;-80
2022/01/14 11:29:39;;;;;;;0.63;0.57;;;;;;;2.98;71.81;95865.91;5027033;28;20118;-78
2022/01/14 11:32:08;;;;;;;3.25;0.52;;;;;;;2.90;72.19;95846.59;4997444;28;20042;-81
2022/01/14 11:34:42;;;;;;;2.92;0.68;;;;;;;3.01;71.88;95873.50;5023094;28;20050;-80
2022/01/14 11:37:13;;;;;;;1.70;0.90;;;;;;;2.95;71.68;95862.63;5004167;28;20655;-80
2022/01/14 11:39:53;;;;;;;1.08;0.70;;;;;;;2.91;72.27;95849.09;5021677;28;20063;-80
2022/01/14 11:43:02;;;;;;;1.33;0.60;;;;;;;2.81;71.58;95842.66;4992287;28;20522;-81
2022/01/14 11:45:43;;;;;;;1.38;0.70;;;;;;;2.96;72.02;95847.19;5020220;28;20060;-81
2022/01/14 11:48:33;;;;;;;1.75;0.70;;;;;;;2.94;71.70;95854.13;5002391;28;20061;-81
2022/01/14 11:51:05;;;;;;;1.45;0.70;;;;;;;2.53;71.90;95787.34;5022114;28;20042;-80
2022/01/14 11:53:44;;;;;;;0.95;0.70;;;;;;;2.84;71.80;95852.81;5001449;28;20126;-80
2022/01/14 11:56:35;;;;;;;0.77;0.50;;;;;;;2.78;71.38;95850.47;5017594;28;20498;-81
2022/01/14 11:59:19;;;;;;;1.00;0.57;;;;;;;2.69;71.40;95851.69;5019850;28;20037;-80
2022/01/14 12:01:55;;;;;;;0.95;0.50;;;;;;;2.43;71.05;95809.94;5023240;28;20081;-81
2022/01/14 12:04:22;;;;;;;1.65;0.43;;;;;;;2.53;71.18;95818.13;5022151;28;20121;-79
2022/01/14 12:06:51;;;;;;;0.85;0.70;;;;;;;2.58;71.38;95816.19;5020552;28;20061;-82
2022/01/14 12:09:23;;;;;;;1.27;0.50;;;;;;;2.19;71.24;95751.06;5019879;28;20045;-78
2022/01/14 12:12:27;;;;;;;1.58;0.60;;;;;;;2.73;71.43;95809.59;5014153;28;20034;-81
2022/01/14 12:15:16;;;;;;;1.33;0.60;;;;;;;2.66;71.50;95797.91;5022568;28;20067;-81
2022/01/14 12:17:47;;;;;;;2.30;0.80;;;;;;;2.74;71.30;95800.19;5021968;28;20037;-80
2022/01/14 12:20:15;;;;;;;2.72;0.63;;;;;;;2.57;71.00;95781.16;5022898;28;20084;-81
2022/01/14 12:23:02;;;;;;;0.98;0.68;;;;;;;2.68;70.80;95786.69;5024375;28;20053;-80
2022/01/14 12:25:39;;;;;;;0.93;0.60;;;;;;;2.28;70.35;95742.16;5021203;28;20055;-80
2022/01/14 12:28:18;;;;;;;1.10;0.70;;;;;;;2.35;70.40;95773.50;5005225;28;20042;-80
2022/01/14 12:31:02;;;;;;;2.53;0.80;;;;;;;2.37;70.91;95795.63;5009906;28;20057;-84
2022/01/14 12:33:41;;;;;;;2.08;0.98;;;;;;;2.43;70.57;95794.53;5021564;28;20042;-78